Terminal Aerodrome Forecast
Issued by NWS Blacksburg, VA

Current Version | Previous Version | Graphics & Text | Print | Product List | Glossary On
Versions: 1 2 3 4 5 6 7 8 9 10 11 12 13 14 15 16 17 18 19
000
FTUS41 KRNK 271131
TAFBLF
TAF
KBLF 271131Z 2712/2812 22004KT 3SM BR SCT003 BKN060
     FM271400 26010KT P6SM OVC040
     FM272000 27009KT P6SM VCTS OVC035CB
     FM280200 25006KT P6SM BKN060
     FM280700 25006KT 4SM BR OVC025=

USA.gov is the U.S. government's official web portal to all federal, state and local government web resources and services.